Terminal Aerodrome Forecast
Issued by NWS Sterling, VA

Current Version | Previous Version | Text Only | Print | Product List | Glossary Off
Versions: 1 2 3 4 5 6 7 8 9 10 11 12 13 14 15 16 17 18 19 20 21 22 23

183
FTUS41 KLWX 081740
TAFIAD
TAF
KIAD 081740Z 0818/0924 12005KT P6SM BKN200
     FM090000 12006KT 3SM -RA OVC025
     FM090300 12006KT 2SM -RASN OVC020
     FM090600 10005KT 1/2SM SN OVC008
     FM091100 04005KT 1SM -SN OVC008
     FM091500 34005KT 1/2SM SN OVC008
     FM092100 30007KT 2SM -SNRA OVC015=

USA.gov is the U.S. government's official web portal to all federal, state and local government web resources and services.